createdAt,value
2024-03-24T00:00:05.903Z,8.83
2024-03-24T00:05:34.651Z,8.80
2024-03-24T00:10:37.548Z,8.76
2024-03-24T00:15:40.514Z,8.73
2024-03-24T00:20:43.514Z,8.75
2024-03-24T00:25:46.499Z,8.80
2024-03-24T00:30:49.551Z,8.81
2024-03-24T00:35:52.427Z,8.80
2024-03-24T00:40:55.664Z,8.82
2024-03-24T00:45:58.819Z,8.84
2024-03-24T00:51:01.947Z,8.82
2024-03-24T00:56:05.397Z,8.78
2024-03-24T01:01:08.868Z,8.78
2024-03-24T01:06:11.932Z,8.81
2024-03-24T01:11:15.355Z,8.81
2024-03-24T01:16:18.174Z,8.81
2024-03-24T01:21:21.309Z,8.81
2024-03-24T01:26:25.008Z,8.80
2024-03-24T01:31:27.980Z,8.77
2024-03-24T01:36:31.538Z,8.78
2024-03-24T01:41:34.440Z,8.77
2024-03-24T01:46:37.753Z,8.75
2024-03-24T01:51:40.687Z,8.72
2024-03-24T01:56:44.375Z,8.68
2024-03-24T02:01:47.437Z,8.67
2024-03-24T02:06:50.740Z,8.66
2024-03-24T02:11:53.619Z,8.66
2024-03-24T02:16:56.540Z,8.67
2024-03-24T02:21:59.458Z,8.64
2024-03-24T02:27:02.364Z,8.61
2024-03-24T02:32:05.770Z,8.60
2024-03-24T02:37:08.880Z,8.61
2024-03-24T02:42:11.843Z,8.59
2024-03-24T02:47:14.741Z,8.60
2024-03-24T02:52:17.565Z,8.60
2024-03-24T02:57:20.496Z,8.59
2024-03-24T03:02:23.332Z,8.59
2024-03-24T03:07:26.326Z,8.59
2024-03-24T03:12:29.206Z,8.58
2024-03-24T03:17:33.282Z,8.56
2024-03-24T03:22:36.291Z,8.55
2024-03-24T03:27:39.615Z,8.50
2024-03-24T03:32:42.603Z,8.43
2024-03-24T03:37:45.499Z,8.39
2024-03-24T03:42:48.376Z,8.35
2024-03-24T03:47:51.795Z,8.28
2024-03-24T03:52:56.743Z,8.23
2024-03-24T03:57:59.611Z,8.17
2024-03-24T04:03:02.637Z,8.10
2024-03-24T04:08:06.430Z,8.04
2024-03-24T04:13:09.325Z,8.00
2024-03-24T04:18:12.205Z,7.99
2024-03-24T04:23:15.065Z,8.00
2024-03-24T04:28:17.976Z,7.99
2024-03-24T04:33:20.824Z,7.91
2024-03-24T04:38:23.721Z,7.84
2024-03-24T04:43:27.769Z,7.80
2024-03-24T04:48:30.634Z,7.79
2024-03-24T04:53:33.494Z,7.79
2024-03-24T04:58:36.435Z,7.77
2024-03-24T05:03:39.373Z,7.76
2024-03-24T05:08:42.476Z,7.78
2024-03-24T05:13:48.761Z,7.80
2024-03-24T05:18:52.476Z,7.83
2024-03-24T05:23:55.464Z,7.88
2024-03-24T05:28:58.764Z,7.95
2024-03-24T05:34:01.902Z,8.02
2024-03-24T05:39:05.225Z,8.09
2024-03-24T05:44:08.168Z,8.16
2024-03-24T05:49:11.670Z,8.21
2024-03-24T05:54:14.471Z,8.26
2024-03-24T05:59:17.971Z,8.31
2024-03-24T06:04:20.962Z,8.38
2024-03-24T06:09:24.023Z,8.49
2024-03-24T06:14:26.881Z,8.60
2024-03-24T06:19:29.786Z,8.67
2024-03-24T06:24:32.735Z,8.78
2024-03-24T06:29:36.522Z,8.92
2024-03-24T06:34:39.449Z,9.06
2024-03-24T06:39:42.407Z,9.14
2024-03-24T06:44:47.659Z,9.16
2024-03-24T06:49:50.804Z,9.22
2024-03-24T06:54:54.348Z,9.38
2024-03-24T06:59:57.331Z,9.53
2024-03-24T07:05:00.406Z,9.64
2024-03-24T07:10:05.278Z,9.74
2024-03-24T07:15:09.113Z,9.79
2024-03-24T07:20:12.663Z,9.73
2024-03-24T07:25:15.926Z,9.67
2024-03-24T07:30:18.971Z,9.67
2024-03-24T07:35:22.248Z,9.62
2024-03-24T07:40:25.908Z,9.60
2024-03-24T07:45:31.726Z,9.36
2024-03-24T07:50:34.743Z,9.03
2024-03-24T07:55:37.644Z,8.79
2024-03-24T08:00:40.584Z,8.63
2024-03-24T08:05:43.447Z,8.56
2024-03-24T08:10:46.433Z,8.49
2024-03-24T08:15:49.457Z,8.47
2024-03-24T08:20:54.536Z,9.76
2024-03-24T08:25:59.426Z,13.36
2024-03-24T08:31:02.528Z,14.19
2024-03-24T08:36:06.245Z,12.50
2024-03-24T08:41:13.817Z,11.35
2024-03-24T08:46:16.856Z,10.63
2024-03-24T08:51:19.931Z,10.15
2024-03-24T08:56:22.929Z,9.85
2024-03-24T09:01:25.779Z,9.62
2024-03-24T09:06:28.781Z,9.40
2024-03-24T09:11:31.815Z,9.25
2024-03-24T09:16:37.708Z,9.16
2024-03-24T09:21:40.936Z,8.99
2024-03-24T09:26:44.295Z,8.85
2024-03-24T09:31:47.184Z,8.90
2024-03-24T09:36:50.431Z,8.80
2024-03-24T09:41:54.869Z,8.65
2024-03-24T09:47:00.720Z,8.48
2024-03-24T09:52:05.840Z,8.29
2024-03-24T09:57:08.716Z,9.26
2024-03-24T10:02:13.990Z,12.71
2024-03-24T10:07:17.261Z,13.56
2024-03-24T10:12:20.540Z,11.87
2024-03-24T10:17:23.864Z,10.90
2024-03-24T10:22:26.913Z,10.23
2024-03-24T10:27:30.963Z,9.64
2024-03-24T10:32:33.954Z,9.12
2024-03-24T10:37:37.515Z,8.78
2024-03-24T10:42:55.613Z,8.60
2024-03-24T10:48:04.763Z,8.62
2024-03-24T10:53:15.221Z,8.75
2024-03-24T10:58:21.430Z,8.96
2024-03-24T11:03:24.984Z,10.63
2024-03-24T11:08:27.963Z,14.31
2024-03-24T11:13:35.557Z,14.25
2024-03-24T11:18:38.600Z,13.26
2024-03-24T11:23:41.930Z,12.83
2024-03-24T11:28:52.215Z,12.54
2024-03-24T11:34:01.392Z,12.30
2024-03-24T11:39:07.370Z,12.10
2024-03-24T11:44:10.381Z,12.09
2024-03-24T11:49:13.284Z,11.99
2024-03-24T11:54:16.953Z,11.74
2024-03-24T11:59:21.731Z,11.17
2024-03-24T12:04:26.229Z,10.41
2024-03-24T12:09:31.926Z,9.61
2024-03-24T12:14:35.271Z,9.00
2024-03-24T12:19:38.347Z,8.64
2024-03-24T12:24:41.500Z,8.36
2024-03-24T12:29:52.571Z,8.29
2024-03-24T12:35:01.720Z,8.07
2024-03-24T12:40:05.340Z,7.96
2024-03-24T12:45:10.173Z,7.92
2024-03-24T12:50:39.157Z,7.99
2024-03-24T12:55:49.316Z,8.13
2024-03-24T13:00:53.303Z,8.34
2024-03-24T13:06:01.490Z,8.81
2024-03-24T13:11:12.128Z,9.57
2024-03-24T13:16:30.390Z,10.27
2024-03-24T13:21:38.113Z,10.99
2024-03-24T13:26:45.640Z,11.71
2024-03-24T13:31:48.875Z,12.41
2024-03-24T13:37:13.240Z,13.02
2024-03-24T13:42:32.887Z,13.65
2024-03-24T13:47:38.942Z,14.20
2024-03-24T13:52:43.708Z,14.61
2024-03-24T13:57:46.795Z,14.84
2024-03-24T14:02:50.214Z,14.87
2024-03-24T14:07:53.516Z,14.70
2024-03-24T14:13:44.548Z,14.36
2024-03-24T14:18:50.191Z,13.82
2024-03-24T14:23:57.992Z,13.34
2024-03-24T14:29:00.848Z,12.95
2024-03-24T14:34:03.884Z,12.56
2024-03-24T14:39:19.414Z,12.28
2024-03-24T14:44:44.029Z,12.14
2024-03-24T14:49:46.933Z,11.99
2024-03-24T14:54:49.803Z,11.74
2024-03-24T14:59:54.847Z,11.56
2024-03-24T15:04:58.183Z,11.46
2024-03-24T15:10:01.076Z,11.45
2024-03-24T15:15:04.861Z,11.47
2024-03-24T15:20:11.654Z,11.50
2024-03-24T15:25:14.735Z,11.48
2024-03-24T15:30:17.697Z,11.49
2024-03-24T15:35:20.691Z,11.45
2024-03-24T15:40:23.617Z,11.40
2024-03-24T15:45:26.662Z,11.36
2024-03-24T15:50:29.744Z,11.41
2024-03-24T15:55:42.488Z,11.47
2024-03-24T16:00:51.322Z,11.46
2024-03-24T16:05:54.248Z,11.44
2024-03-24T16:11:17.003Z,11.44
2024-03-24T16:16:20.155Z,11.45
2024-03-24T16:21:52.388Z,11.46
2024-03-24T16:26:55.319Z,11.45
2024-03-24T16:31:58.829Z,11.39
2024-03-24T16:37:01.744Z,11.35
2024-03-24T16:42:04.806Z,11.32
2024-03-24T16:47:07.720Z,11.31
2024-03-24T16:52:10.875Z,11.28
2024-03-24T16:57:14.055Z,11.22
2024-03-24T17:02:21.176Z,11.19
2024-03-24T17:07:24.133Z,11.15
2024-03-24T17:12:27.138Z,11.12
2024-03-24T17:17:30.103Z,11.16
2024-03-24T17:22:33.223Z,11.16
2024-03-24T17:27:36.256Z,11.12
2024-03-24T17:32:39.243Z,11.07
2024-03-24T17:37:42.576Z,11.01
2024-03-24T17:42:45.567Z,10.97
2024-03-24T17:47:48.771Z,10.96
2024-03-24T17:52:51.670Z,11.07
2024-03-24T17:57:57.070Z,11.10
2024-03-24T18:03:00.401Z,11.06
2024-03-24T18:08:22.392Z,10.99
2024-03-24T18:13:25.439Z,10.97
2024-03-24T18:18:28.376Z,10.93
2024-03-24T18:23:33.691Z,10.88
2024-03-24T18:28:40.199Z,10.82
2024-03-24T18:33:43.399Z,10.75
2024-03-24T18:38:48.145Z,10.71
2024-03-24T18:43:51.189Z,10.67
2024-03-24T18:48:54.133Z,10.63
2024-03-24T18:53:57.049Z,10.54
2024-03-24T18:58:59.970Z,10.44
2024-03-24T19:04:03.969Z,10.37
2024-03-24T19:09:09.382Z,10.30
2024-03-24T19:14:12.374Z,10.23
2024-03-24T19:19:15.583Z,10.15
2024-03-24T19:24:18.710Z,10.07
2024-03-24T19:29:21.666Z,9.98
2024-03-24T19:34:24.732Z,9.93
2024-03-24T19:39:27.646Z,9.90
2024-03-24T19:44:32.379Z,9.91
2024-03-24T19:49:37.112Z,9.96
2024-03-24T19:54:41.069Z,10.00
2024-03-24T19:59:46.337Z,10.04
2024-03-24T20:04:49.239Z,10.08
2024-03-24T20:09:55.746Z,10.11
2024-03-24T20:15:02.821Z,10.12
2024-03-24T20:20:07.922Z,10.14
2024-03-24T20:25:11.014Z,10.16
2024-03-24T20:30:14.490Z,10.15
2024-03-24T20:35:17.930Z,10.11
2024-03-24T20:40:20.966Z,10.07
2024-03-24T20:45:24.655Z,9.99
2024-03-24T20:50:30.446Z,9.91
2024-03-24T20:55:34.046Z,9.86
2024-03-24T21:00:37.135Z,9.91
2024-03-24T21:05:40.088Z,9.88
2024-03-24T21:10:45.067Z,9.86
2024-03-24T21:15:48.591Z,9.79
2024-03-24T21:20:52.411Z,9.68
2024-03-24T21:25:55.503Z,9.56
2024-03-24T21:30:58.538Z,9.48
2024-03-24T21:36:01.992Z,9.43
2024-03-24T21:41:23.636Z,9.38
2024-03-24T21:46:26.744Z,9.29
2024-03-24T21:51:29.663Z,9.21
2024-03-24T21:56:32.637Z,9.13
2024-03-24T22:01:35.516Z,9.07
2024-03-24T22:06:51.125Z,9.00
2024-03-24T22:11:59.056Z,8.95
2024-03-24T22:17:02.255Z,8.88
2024-03-24T22:22:06.300Z,8.79
2024-03-24T22:27:10.135Z,8.69
2024-03-24T22:32:13.010Z,8.60
2024-03-24T22:37:15.980Z,8.56
2024-03-24T22:42:19.346Z,8.55
2024-03-24T22:47:22.232Z,8.58
2024-03-24T22:52:25.451Z,8.60
2024-03-24T22:57:28.650Z,8.59
2024-03-24T23:02:33.155Z,8.54
2024-03-24T23:07:37.182Z,8.48
2024-03-24T23:12:40.156Z,8.39
2024-03-24T23:17:43.180Z,8.31
2024-03-24T23:22:46.024Z,8.24
2024-03-24T23:27:49.188Z,8.15
2024-03-24T23:32:52.059Z,8.05
2024-03-24T23:37:55.002Z,7.95
2024-03-24T23:42:58.064Z,7.87
2024-03-24T23:48:02.855Z,7.75
2024-03-24T23:53:05.764Z,7.63
2024-03-24T23:58:08.934Z,7.49
